createdAt,value
2023-03-14T00:00:15.066Z,95639.41
2023-03-14T00:03:01.350Z,95654.56
2023-03-14T00:05:47.388Z,95643.72
2023-03-14T00:08:33.631Z,95640.94
2023-03-14T00:11:21.771Z,95641.78
2023-03-14T00:14:07.523Z,95617.28
2023-03-14T00:16:53.393Z,95610.78
2023-03-14T00:19:39.378Z,95632.09
2023-03-14T00:22:25.098Z,95610.97
2023-03-14T00:25:12.315Z,95617.28
2023-03-14T00:27:58.330Z,95622.13
2023-03-14T00:30:44.176Z,95628.41
2023-03-14T00:33:29.998Z,95619.47
2023-03-14T00:36:17.934Z,95611.47
2023-03-14T00:39:04.513Z,95618.94
2023-03-14T00:41:50.953Z,95619.06
2023-03-14T00:44:36.804Z,95608.44
2023-03-14T00:47:26.519Z,95612.09
2023-03-14T00:50:12.887Z,95601.16
2023-03-14T00:52:59.794Z,95599.66
2023-03-14T00:55:46.439Z,95607.78
2023-03-14T00:58:32.352Z,95580.00
2023-03-14T01:01:19.876Z,95607.44
2023-03-14T01:04:05.966Z,95606.59
2023-03-14T01:06:51.918Z,95580.47
2023-03-14T01:09:37.622Z,95600.94
2023-03-14T01:12:23.900Z,95592.75
2023-03-14T01:15:10.195Z,95593.44
2023-03-14T01:17:55.953Z,95593.59
2023-03-14T01:20:42.898Z,95582.97
2023-03-14T01:23:29.321Z,95571.84
2023-03-14T01:26:20.029Z,95560.16
2023-03-14T01:29:05.995Z,95563.88
2023-03-14T01:31:54.824Z,95561.53
2023-03-14T01:34:41.202Z,95572.44
2023-03-14T01:37:27.063Z,95571.97
2023-03-14T01:40:15.100Z,95553.84
2023-03-14T01:43:14.585Z,95549.84
2023-03-14T01:46:06.711Z,95548.66
2023-03-14T01:49:03.172Z,95554.16
2023-03-14T01:52:12.109Z,95538.03
2023-03-14T01:55:21.816Z,95530.69
2023-03-14T01:58:09.626Z,95540.69
2023-03-14T02:00:58.730Z,95542.81
2023-03-14T02:03:51.872Z,95536.84
2023-03-14T02:07:04.201Z,95550.69
2023-03-14T02:09:55.487Z,95552.91
2023-03-14T02:12:44.829Z,95549.56
2023-03-14T02:15:50.857Z,95543.72
2023-03-14T02:18:55.096Z,95538.91
2023-03-14T02:22:10.830Z,95532.75
2023-03-14T02:25:06.664Z,95532.09
2023-03-14T02:27:52.515Z,95537.53
2023-03-14T02:30:38.826Z,95528.91
2023-03-14T02:33:25.210Z,95498.94
2023-03-14T02:36:14.860Z,95515.44
2023-03-14T02:39:17.086Z,95523.84
2023-03-14T02:42:05.756Z,95521.06
2023-03-14T02:44:53.169Z,95506.28
2023-03-14T02:47:44.782Z,95517.06
2023-03-14T02:50:34.386Z,95491.47
2023-03-14T02:53:25.100Z,95517.06
2023-03-14T02:56:11.942Z,95509.75
2023-03-14T02:58:58.843Z,95511.06
2023-03-14T03:02:01.280Z,95514.56
2023-03-14T03:04:47.707Z,95504.06
2023-03-14T03:07:35.947Z,95529.50
2023-03-14T03:10:21.809Z,95528.97
2023-03-14T03:13:07.806Z,95524.13
2023-03-14T03:15:53.941Z,95517.25
2023-03-14T03:18:39.726Z,95510.31
2023-03-14T03:21:25.657Z,95499.81
2023-03-14T03:24:11.290Z,95513.72
2023-03-14T03:26:57.364Z,95490.69
2023-03-14T03:29:43.660Z,95511.25
2023-03-14T03:32:30.057Z,95510.44
2023-03-14T03:35:16.146Z,95514.25
2023-03-14T03:38:02.070Z,95491.59
2023-03-14T03:40:48.804Z,95516.91
2023-03-14T03:43:35.835Z,95532.94
2023-03-14T03:46:24.481Z,95518.66
2023-03-14T03:49:10.961Z,95522.13
2023-03-14T03:51:57.437Z,95521.66
2023-03-14T03:54:43.325Z,95515.38
2023-03-14T03:57:29.477Z,95516.38
2023-03-14T04:00:16.493Z,95503.28
2023-03-14T04:03:02.478Z,95514.84
2023-03-14T04:05:59.395Z,95517.50
2023-03-14T04:08:45.769Z,95507.06
2023-03-14T04:11:44.204Z,95510.53
2023-03-14T04:14:39.332Z,95494.59
2023-03-14T04:17:31.622Z,95495.78
2023-03-14T04:20:17.851Z,95488.44
2023-03-14T04:23:03.910Z,95503.03
2023-03-14T04:25:52.115Z,95505.22
2023-03-14T04:28:40.103Z,95502.75
2023-03-14T04:31:26.955Z,95472.31
2023-03-14T04:34:13.094Z,95488.28
2023-03-14T04:37:11.139Z,95475.16
2023-03-14T04:40:00.913Z,95479.34
2023-03-14T04:42:51.169Z,95495.91
2023-03-14T04:45:37.422Z,95494.44
2023-03-14T04:48:29.081Z,95502.38
2023-03-14T04:51:15.162Z,95512.16
2023-03-14T04:54:01.538Z,95498.38
2023-03-14T04:56:47.972Z,95518.94
2023-03-14T04:59:34.248Z,95504.88
2023-03-14T05:02:31.365Z,95496.09
2023-03-14T05:05:42.461Z,95492.91
2023-03-14T05:09:06.000Z,95486.63
2023-03-14T05:12:17.986Z,95483.97
2023-03-14T05:15:35.277Z,95472.31
2023-03-14T05:18:37.594Z,95487.59
2023-03-14T05:21:49.410Z,95491.25
2023-03-14T05:25:08.963Z,95501.69
2023-03-14T05:28:00.629Z,95478.28
2023-03-14T05:31:09.094Z,95481.63
2023-03-14T05:34:23.375Z,95486.63
2023-03-14T05:37:23.980Z,95488.28
2023-03-14T05:40:35.652Z,95461.03
2023-03-14T05:43:24.555Z,95461.88
2023-03-14T05:46:33.194Z,95485.47
2023-03-14T05:49:45.217Z,95498.94
2023-03-14T05:52:57.706Z,95491.97
2023-03-14T05:56:01.592Z,95483.72
2023-03-14T05:59:06.193Z,95480.91
2023-03-14T06:02:09.083Z,95476.06
2023-03-14T06:05:06.848Z,95463.03
2023-03-14T06:07:52.866Z,95471.00
2023-03-14T06:10:39.741Z,95468.06
2023-03-14T06:13:26.374Z,95448.13
2023-03-14T06:16:12.628Z,95450.16
2023-03-14T06:18:59.363Z,95472.78
2023-03-14T06:21:45.434Z,95452.03
2023-03-14T06:24:31.635Z,95464.03
2023-03-14T06:27:18.902Z,95471.53
2023-03-14T06:30:05.851Z,95462.94
2023-03-14T06:32:52.307Z,95460.09
2023-03-14T06:35:40.663Z,95462.81
2023-03-14T06:38:26.997Z,95459.22
2023-03-14T06:41:15.295Z,95448.13
2023-03-14T06:44:03.655Z,95452.94
2023-03-14T06:46:50.046Z,95438.84
2023-03-14T06:49:35.689Z,95454.00
2023-03-14T06:52:22.989Z,95444.38
2023-03-14T06:55:09.850Z,95451.69
2023-03-14T06:57:56.497Z,95440.44
2023-03-14T07:00:43.171Z,95450.72
2023-03-14T07:03:31.801Z,95427.16
2023-03-14T07:06:19.458Z,95437.63
2023-03-14T07:09:05.269Z,95426.31
2023-03-14T07:11:53.152Z,95423.19
2023-03-14T07:14:39.400Z,95433.97
2023-03-14T07:17:25.860Z,95426.66
2023-03-14T07:20:11.901Z,95422.16
2023-03-14T07:22:57.791Z,95407.69
2023-03-14T07:25:56.828Z,95404.84
2023-03-14T07:28:45.047Z,95406.66
2023-03-14T07:31:36.720Z,95411.47
2023-03-14T07:34:23.245Z,95390.19
2023-03-14T07:37:10.649Z,95386.63
2023-03-14T07:39:56.830Z,95390.59
2023-03-14T07:42:45.609Z,95383.53
2023-03-14T07:45:42.532Z,95384.97
2023-03-14T07:48:29.294Z,95396.41
2023-03-14T07:51:15.186Z,95392.28
2023-03-14T07:54:00.933Z,95392.44
2023-03-14T07:56:46.918Z,95385.34
2023-03-14T07:59:32.854Z,95383.47
2023-03-14T08:02:21.313Z,95369.22
2023-03-14T08:05:08.008Z,95374.78
2023-03-14T08:07:54.044Z,95369.31
2023-03-14T08:10:39.812Z,95358.22
2023-03-14T08:13:26.705Z,95364.78
2023-03-14T08:16:12.690Z,95354.25
2023-03-14T08:18:58.824Z,95355.84
2023-03-14T08:21:44.983Z,95341.66
2023-03-14T08:24:30.866Z,95339.44
2023-03-14T08:27:16.893Z,95306.84
2023-03-14T08:30:02.963Z,95338.34
2023-03-14T08:32:49.098Z,95310.53
2023-03-14T08:35:35.191Z,95320.19
2023-03-14T08:38:21.297Z,95310.97
2023-03-14T08:41:07.263Z,95320.75
2023-03-14T08:43:53.335Z,95310.59
2023-03-14T08:46:39.161Z,95296.28
2023-03-14T08:49:25.223Z,95294.88
2023-03-14T08:52:11.260Z,95274.34
2023-03-14T08:54:56.966Z,95285.59
2023-03-14T08:57:42.840Z,95277.31
2023-03-14T09:00:28.806Z,95275.19
2023-03-14T09:03:15.737Z,95275.44
2023-03-14T09:06:06.976Z,95255.81
2023-03-14T09:08:52.706Z,95235.38
2023-03-14T09:11:38.403Z,95257.16
2023-03-14T09:14:24.521Z,95249.56
2023-03-14T09:17:10.555Z,95230.63
2023-03-14T09:19:57.666Z,95241.56
2023-03-14T09:22:45.272Z,95244.38
2023-03-14T09:25:31.155Z,95232.19
2023-03-14T09:28:16.918Z,95235.94
2023-03-14T09:31:10.790Z,95215.31
2023-03-14T09:33:57.176Z,95225.50
2023-03-14T09:36:45.372Z,95226.38
2023-03-14T09:39:31.083Z,95207.03
2023-03-14T09:42:20.345Z,95214.72
2023-03-14T09:45:08.404Z,95197.66
2023-03-14T09:47:59.390Z,95188.19
2023-03-14T09:50:55.558Z,95191.06
2023-03-14T09:53:50.974Z,95183.44
2023-03-14T09:56:37.342Z,95190.47
2023-03-14T09:59:23.899Z,95175.00
2023-03-14T10:02:22.448Z,95170.44
2023-03-14T10:05:19.949Z,95169.63
2023-03-14T10:08:05.893Z,95156.63
2023-03-14T10:10:52.063Z,95157.63
2023-03-14T10:13:54.273Z,95148.72
2023-03-14T10:16:45.690Z,95126.59
2023-03-14T10:19:31.526Z,95136.88
2023-03-14T10:22:18.437Z,95135.81
2023-03-14T10:25:08.311Z,95121.72
2023-03-14T10:27:54.483Z,95112.84
2023-03-14T10:30:45.502Z,95108.13
2023-03-14T10:33:34.420Z,95093.47
2023-03-14T10:36:23.484Z,95098.19
2023-03-14T10:39:18.585Z,95091.56
2023-03-14T10:42:18.409Z,95085.78
2023-03-14T10:45:27.311Z,95062.22
2023-03-14T10:48:23.784Z,95084.09
2023-03-14T10:51:29.288Z,95076.31
2023-03-14T10:54:21.542Z,95065.56
2023-03-14T10:57:08.243Z,95052.00
2023-03-14T10:59:55.155Z,95022.44
2023-03-14T11:03:09.457Z,95044.56
2023-03-14T11:06:02.813Z,95025.59
2023-03-14T11:09:06.619Z,95025.38
2023-03-14T11:11:52.669Z,95023.56
2023-03-14T11:14:44.887Z,95019.63
2023-03-14T11:17:58.731Z,95008.91
2023-03-14T11:20:57.335Z,95006.13
2023-03-14T11:23:59.222Z,94980.16
2023-03-14T11:27:11.382Z,94965.16
2023-03-14T11:30:16.118Z,94970.31
2023-03-14T11:33:31.554Z,94970.59
2023-03-14T11:36:30.508Z,94952.66
2023-03-14T11:39:17.987Z,94951.94
2023-03-14T11:42:05.735Z,94943.38
2023-03-14T11:44:51.778Z,94930.00
2023-03-14T11:47:40.999Z,94915.56
2023-03-14T11:50:31.150Z,94920.38
2023-03-14T11:53:22.536Z,94891.19
2023-03-14T11:56:26.881Z,94880.72
2023-03-14T11:59:34.574Z,94888.19
2023-03-14T12:02:26.982Z,94880.81
2023-03-14T12:05:21.747Z,94883.94
2023-03-14T12:08:10.727Z,94872.81
2023-03-14T12:11:09.518Z,94863.28
2023-03-14T12:13:55.520Z,94829.16
2023-03-14T12:16:41.781Z,94846.91
2023-03-14T12:19:30.491Z,94818.59
2023-03-14T12:22:34.393Z,94833.50
2023-03-14T12:25:24.844Z,94825.41
2023-03-14T12:28:32.451Z,94807.22
2023-03-14T12:31:31.157Z,94809.22
2023-03-14T12:34:17.290Z,94814.38
2023-03-14T12:37:09.926Z,94801.84
2023-03-14T12:40:18.631Z,94778.50
2023-03-14T12:43:25.236Z,94789.31
2023-03-14T12:46:24.547Z,94772.44
2023-03-14T12:49:10.658Z,94770.19
2023-03-14T12:52:01.560Z,94770.56
2023-03-14T12:54:48.769Z,94774.44
2023-03-14T12:57:40.287Z,94752.31
2023-03-14T13:00:35.271Z,94755.56
2023-03-14T13:03:26.648Z,94746.22
2023-03-14T13:06:13.399Z,94738.91
2023-03-14T13:09:00.037Z,94736.97
2023-03-14T13:11:46.712Z,94737.69
2023-03-14T13:14:33.103Z,94720.28
2023-03-14T13:17:37.726Z,94727.84
2023-03-14T13:20:40.185Z,94721.34
2023-03-14T13:23:30.694Z,94716.97
2023-03-14T13:26:16.675Z,94710.56
2023-03-14T13:29:23.171Z,94710.34
2023-03-14T13:32:28.991Z,94693.81
2023-03-14T13:35:16.964Z,94689.34
2023-03-14T13:38:12.177Z,94692.22
2023-03-14T13:41:00.728Z,94685.34
2023-03-14T13:43:46.668Z,94677.13
2023-03-14T13:46:35.571Z,94684.53
2023-03-14T13:49:25.552Z,94670.00
2023-03-14T13:52:36.907Z,94668.38
2023-03-14T13:55:22.647Z,94641.88
2023-03-14T13:58:29.299Z,94647.19
2023-03-14T14:01:19.642Z,94640.31
2023-03-14T14:04:14.732Z,94629.25
2023-03-14T14:07:01.436Z,94632.81
2023-03-14T14:09:52.422Z,94620.94
2023-03-14T14:12:41.067Z,94623.66
2023-03-14T14:15:28.732Z,94608.94
2023-03-14T14:18:18.558Z,94613.25
2023-03-14T14:21:04.978Z,94621.38
2023-03-14T14:23:50.991Z,94603.78
2023-03-14T14:26:41.594Z,94598.22
2023-03-14T14:29:33.320Z,94585.25
2023-03-14T14:32:19.132Z,94569.34
2023-03-14T14:35:06.508Z,94567.22
2023-03-14T14:37:52.995Z,94577.97
2023-03-14T14:40:45.249Z,94583.50
2023-03-14T14:43:36.641Z,94571.25
2023-03-14T14:46:22.843Z,94576.53
2023-03-14T14:49:15.306Z,94579.41
2023-03-14T14:52:14.082Z,94575.25
2023-03-14T14:55:01.182Z,94561.28
2023-03-14T14:57:55.337Z,94569.44
2023-03-14T15:00:42.673Z,94570.31
2023-03-14T15:03:30.081Z,94564.41
2023-03-14T15:06:17.449Z,94566.03
2023-03-14T15:09:03.955Z,94578.53
2023-03-14T15:11:50.333Z,94564.66
2023-03-14T15:14:36.153Z,94569.84
2023-03-14T15:17:22.068Z,94568.72
2023-03-14T15:20:14.264Z,94568.69
2023-03-14T15:23:00.021Z,94541.53
2023-03-14T15:25:55.462Z,94545.84
2023-03-14T15:28:42.319Z,94551.03
2023-03-14T15:31:28.290Z,94530.63
2023-03-14T15:34:13.942Z,94545.78
2023-03-14T15:36:59.744Z,94548.41
2023-03-14T15:39:45.935Z,94538.81
2023-03-14T15:42:32.150Z,94554.25
2023-03-14T15:45:18.144Z,94547.69
2023-03-14T15:48:04.693Z,94541.94
2023-03-14T15:50:50.768Z,94552.97
2023-03-14T15:53:39.514Z,94544.53
2023-03-14T15:56:27.412Z,94534.66
2023-03-14T15:59:13.676Z,94549.50
2023-03-14T16:01:59.645Z,94560.03
2023-03-14T16:04:45.534Z,94536.78
2023-03-14T16:07:32.523Z,94551.91
2023-03-14T16:10:19.715Z,94554.44
2023-03-14T16:13:05.507Z,94548.97
2023-03-14T16:15:56.200Z,94557.41
2023-03-14T16:18:42.302Z,94559.16
2023-03-14T16:21:27.946Z,94554.59
2023-03-14T16:24:13.999Z,94547.63
2023-03-14T16:26:59.779Z,94528.13
2023-03-14T16:29:48.662Z,94543.03
2023-03-14T16:32:35.182Z,94533.38
2023-03-14T16:35:21.309Z,94550.47
2023-03-14T16:38:07.594Z,94557.03
2023-03-14T16:41:04.387Z,94558.47
2023-03-14T16:43:52.584Z,94537.75
2023-03-14T16:46:39.261Z,94527.38
2023-03-14T16:49:25.486Z,94539.47
2023-03-14T16:52:11.721Z,94555.38
2023-03-14T16:54:57.659Z,94551.00
2023-03-14T16:57:43.454Z,94551.00
2023-03-14T17:00:29.430Z,94544.84
2023-03-14T17:03:16.001Z,94536.88
2023-03-14T17:06:03.780Z,94549.00
2023-03-14T17:08:50.482Z,94556.28
2023-03-14T17:11:36.929Z,94544.41
2023-03-14T17:14:24.316Z,94554.78
2023-03-14T17:17:10.245Z,94544.56
2023-03-14T17:19:56.192Z,94535.59
2023-03-14T17:22:42.418Z,94534.69
2023-03-14T17:25:28.401Z,94533.03
2023-03-14T17:28:14.143Z,94514.72
2023-03-14T17:31:04.036Z,94516.50
2023-03-14T17:33:51.995Z,94528.53
2023-03-14T17:36:38.457Z,94539.47
2023-03-14T17:39:24.432Z,94529.22
2023-03-14T17:42:10.389Z,94537.16
2023-03-14T17:44:58.171Z,94545.78
2023-03-14T17:47:44.277Z,94540.81
2023-03-14T17:50:30.484Z,94538.16
2023-03-14T17:53:16.296Z,94542.16
2023-03-14T17:56:03.165Z,94542.16
2023-03-14T17:58:49.304Z,94541.00
2023-03-14T18:01:35.235Z,94538.69
2023-03-14T18:04:21.450Z,94526.19
2023-03-14T18:07:07.258Z,94531.19
2023-03-14T18:09:52.975Z,94546.50
2023-03-14T18:12:38.692Z,94522.69
2023-03-14T18:15:24.771Z,94528.63
2023-03-14T18:18:10.792Z,94512.28
2023-03-14T18:20:56.727Z,94499.53
2023-03-14T18:23:42.882Z,94527.88
2023-03-14T18:26:28.900Z,94514.53
2023-03-14T18:29:15.213Z,94510.47
2023-03-14T18:32:01.254Z,94520.41
2023-03-14T18:34:47.212Z,94528.25
2023-03-14T18:37:33.201Z,94518.88
2023-03-14T18:40:20.447Z,94514.59
2023-03-14T18:43:06.353Z,94526.06
2023-03-14T18:45:52.134Z,94518.69
2023-03-14T18:48:44.440Z,94524.53
2023-03-14T18:51:32.040Z,94514.13
2023-03-14T18:54:17.945Z,94516.50
2023-03-14T18:57:03.954Z,94496.59
2023-03-14T18:59:49.713Z,94509.84
2023-03-14T19:02:36.122Z,94513.59
2023-03-14T19:05:21.732Z,94497.06
2023-03-14T19:08:07.548Z,94503.03
2023-03-14T19:10:55.911Z,94493.81
2023-03-14T19:13:42.311Z,94497.53
2023-03-14T19:16:28.208Z,94507.50
2023-03-14T19:19:14.359Z,94478.50
2023-03-14T19:22:01.115Z,94482.81
2023-03-14T19:24:47.468Z,94493.34
2023-03-14T19:27:33.421Z,94475.47
2023-03-14T19:30:19.400Z,94489.03
2023-03-14T19:33:05.482Z,94479.78
2023-03-14T19:35:51.540Z,94475.81
2023-03-14T19:38:37.763Z,94482.81
2023-03-14T19:41:25.157Z,94482.59
2023-03-14T19:44:13.131Z,94483.63
2023-03-14T19:46:59.257Z,94481.19
2023-03-14T19:49:45.093Z,94478.38
2023-03-14T19:52:30.997Z,94486.31
2023-03-14T19:55:16.942Z,94469.75
2023-03-14T19:58:03.630Z,94481.50
2023-03-14T20:00:51.649Z,94478.84
2023-03-14T20:03:37.816Z,94462.59
2023-03-14T20:06:23.771Z,94477.44
2023-03-14T20:09:10.829Z,94469.38
2023-03-14T20:11:56.793Z,94455.59
2023-03-14T20:14:42.889Z,94462.25
2023-03-14T20:17:29.969Z,94444.00
2023-03-14T20:20:16.384Z,94460.03
2023-03-14T20:23:02.410Z,94446.38
2023-03-14T20:25:56.250Z,94456.16
2023-03-14T20:28:44.786Z,94440.63
2023-03-14T20:31:30.957Z,94451.84
2023-03-14T20:34:17.357Z,94450.81
2023-03-14T20:37:03.828Z,94443.66
2023-03-14T20:39:53.572Z,94438.75
2023-03-14T20:42:39.662Z,94436.16
2023-03-14T20:45:28.905Z,94436.63
2023-03-14T20:48:17.373Z,94435.94
2023-03-14T20:51:04.092Z,94423.53
2023-03-14T20:53:50.099Z,94422.13
2023-03-14T20:56:35.935Z,94420.84
2023-03-14T20:59:22.113Z,94415.94
2023-03-14T21:02:10.181Z,94434.63
2023-03-14T21:05:10.839Z,94424.25
2023-03-14T21:08:02.687Z,94425.88
2023-03-14T21:10:54.823Z,94410.91
2023-03-14T21:13:41.389Z,94429.06
2023-03-14T21:16:27.709Z,94424.69
2023-03-14T21:19:13.686Z,94408.72
2023-03-14T21:22:05.447Z,94421.31
2023-03-14T21:24:51.157Z,94422.50
2023-03-14T21:27:40.884Z,94417.69
2023-03-14T21:30:27.022Z,94416.06
2023-03-14T21:33:14.275Z,94414.56
2023-03-14T21:36:01.783Z,94425.06
2023-03-14T21:38:47.582Z,94415.38
2023-03-14T21:41:34.200Z,94413.16
2023-03-14T21:44:21.789Z,94401.00
2023-03-14T21:47:08.088Z,94404.41
2023-03-14T21:49:53.984Z,94409.78
2023-03-14T21:52:39.920Z,94383.72
2023-03-14T21:55:26.205Z,94404.16
2023-03-14T21:58:14.634Z,94386.41
2023-03-14T22:01:02.517Z,94409.53
2023-03-14T22:03:49.600Z,94400.56
2023-03-14T22:06:35.601Z,94406.50
2023-03-14T22:09:22.796Z,94405.31
2023-03-14T22:12:11.031Z,94400.19
2023-03-14T22:14:56.941Z,94402.06
2023-03-14T22:17:42.834Z,94408.00
2023-03-14T22:20:28.577Z,94394.94
2023-03-14T22:23:14.514Z,94398.66
2023-03-14T22:26:00.448Z,94411.41
2023-03-14T22:28:46.307Z,94392.81
2023-03-14T22:31:32.140Z,94404.50
2023-03-14T22:34:18.033Z,94402.03
2023-03-14T22:37:05.996Z,94414.91
2023-03-14T22:39:52.261Z,94392.16
2023-03-14T22:42:38.145Z,94406.53
2023-03-14T22:45:23.991Z,94429.22
2023-03-14T22:48:10.338Z,94435.75
2023-03-14T22:50:56.290Z,94427.94
2023-03-14T22:53:42.300Z,94431.09
2023-03-14T22:56:28.562Z,94432.19
2023-03-14T22:59:15.206Z,94421.44
2023-03-14T23:02:01.379Z,94428.25
2023-03-14T23:04:47.372Z,94424.50
2023-03-14T23:07:33.305Z,94412.44
2023-03-14T23:10:19.371Z,94423.94
2023-03-14T23:13:05.791Z,94394.81
2023-03-14T23:15:51.689Z,94412.69
2023-03-14T23:18:42.177Z,94417.00
2023-03-14T23:21:28.341Z,94393.03
2023-03-14T23:24:14.390Z,94404.38
2023-03-14T23:27:00.184Z,94412.19
2023-03-14T23:29:47.001Z,94409.28
2023-03-14T23:32:32.868Z,94411.25
2023-03-14T23:35:18.697Z,94413.13
2023-03-14T23:38:04.617Z,94411.34
2023-03-14T23:40:50.404Z,94407.50
2023-03-14T23:43:36.205Z,94410.84
2023-03-14T23:46:22.355Z,94405.34
2023-03-14T23:49:08.442Z,94390.81
2023-03-14T23:51:54.247Z,94408.19
2023-03-14T23:54:39.908Z,94400.22
2023-03-14T23:57:25.847Z,94383.28
